createdAt,value
2023-12-20T00:01:39.824Z,101124.41
2023-12-20T00:04:07.402Z,101133.34
2023-12-20T00:06:34.286Z,101131.84
2023-12-20T00:09:01.076Z,101142.28
2023-12-20T00:11:27.794Z,101139.00
2023-12-20T00:13:54.547Z,101135.50
2023-12-20T00:16:21.280Z,101127.22
2023-12-20T00:18:48.154Z,101134.25
2023-12-20T00:21:15.192Z,101135.47
2023-12-20T00:23:41.971Z,101133.84
2023-12-20T00:26:08.574Z,101120.97
2023-12-20T00:28:35.350Z,101121.75
2023-12-20T00:31:02.135Z,101121.06
2023-12-20T00:33:28.993Z,101126.50
2023-12-20T00:35:55.622Z,101116.31
2023-12-20T00:38:22.428Z,101115.50
2023-12-20T00:40:50.858Z,101122.16
2023-12-20T00:43:17.856Z,101115.25
2023-12-20T00:45:44.532Z,101107.50
2023-12-20T00:48:11.562Z,101113.34
2023-12-20T00:50:38.140Z,101117.72
2023-12-20T00:53:05.045Z,101115.50
2023-12-20T00:55:31.738Z,101113.44
2023-12-20T00:58:00.588Z,101107.63
2023-12-20T01:00:27.281Z,101101.09
2023-12-20T01:02:53.928Z,101109.22
2023-12-20T01:05:20.769Z,101105.25
2023-12-20T01:07:48.000Z,101106.34
2023-12-20T01:10:14.968Z,101106.44
2023-12-20T01:12:41.695Z,101093.16
2023-12-20T01:15:08.646Z,101096.78
2023-12-20T01:17:35.437Z,101098.00
2023-12-20T01:20:02.444Z,101101.66
2023-12-20T01:22:29.128Z,101100.25
2023-12-20T01:24:55.928Z,101102.13
2023-12-20T01:27:22.776Z,101104.13
2023-12-20T01:29:49.543Z,101103.44
2023-12-20T01:32:16.498Z,101108.88
2023-12-20T01:34:43.305Z,101114.94
2023-12-20T01:37:10.102Z,101118.47
2023-12-20T01:39:36.852Z,101109.25
2023-12-20T01:42:03.666Z,101107.59
2023-12-20T01:44:30.442Z,101104.34
2023-12-20T01:46:57.593Z,101109.63
2023-12-20T01:49:25.105Z,101111.38
2023-12-20T01:51:52.050Z,101108.91
2023-12-20T01:54:21.468Z,101112.44
2023-12-20T01:56:49.897Z,101109.72
2023-12-20T01:59:16.616Z,101109.63
2023-12-20T02:01:43.566Z,101111.13
2023-12-20T02:04:10.382Z,101107.59
2023-12-20T02:06:40.960Z,101111.81
2023-12-20T02:09:08.651Z,101105.47
2023-12-20T02:11:37.357Z,101101.00
2023-12-20T02:14:04.094Z,101098.19
2023-12-20T02:16:30.929Z,101096.31
2023-12-20T02:18:57.911Z,101098.06
2023-12-20T02:21:42.939Z,101094.78
2023-12-20T02:24:09.637Z,101095.03
2023-12-20T02:26:36.645Z,101092.84
2023-12-20T02:29:03.601Z,101083.63
2023-12-20T02:31:30.351Z,101076.88
2023-12-20T02:33:57.275Z,101084.81
2023-12-20T02:36:24.086Z,101079.13
2023-12-20T02:38:51.925Z,101079.25
2023-12-20T02:41:19.365Z,101084.53
2023-12-20T02:43:46.557Z,101076.81
2023-12-20T02:46:14.902Z,101075.75
2023-12-20T02:48:41.627Z,101065.31
2023-12-20T02:51:08.356Z,101061.81
2023-12-20T02:53:34.912Z,101077.25
2023-12-20T02:56:01.613Z,101080.59
2023-12-20T02:58:28.175Z,101074.53
2023-12-20T03:00:55.412Z,101075.34
2023-12-20T03:03:22.045Z,101074.53
2023-12-20T03:05:48.851Z,101072.19
2023-12-20T03:08:15.546Z,101062.72
2023-12-20T03:10:42.285Z,101067.06
2023-12-20T03:13:08.914Z,101068.69
2023-12-20T03:15:35.730Z,101046.47
2023-12-20T03:18:02.747Z,101054.19
2023-12-20T03:20:29.644Z,101055.00
2023-12-20T03:22:56.257Z,101056.75
2023-12-20T03:25:22.907Z,101050.69
2023-12-20T03:27:49.955Z,101051.38
2023-12-20T03:30:16.774Z,101051.94
2023-12-20T03:32:43.476Z,101056.81
2023-12-20T03:35:10.398Z,101058.31
2023-12-20T03:37:37.552Z,101046.13
2023-12-20T03:40:04.775Z,101054.69
2023-12-20T03:42:32.034Z,101042.50
2023-12-20T03:44:58.662Z,101042.25
2023-12-20T03:47:25.323Z,101041.28
2023-12-20T03:49:51.914Z,101045.25
2023-12-20T03:52:18.591Z,101033.91
2023-12-20T03:54:45.389Z,101036.22
2023-12-20T03:57:12.149Z,101036.91
2023-12-20T03:59:39.035Z,101035.81
2023-12-20T04:02:05.975Z,101035.56
2023-12-20T04:04:32.691Z,101035.31
2023-12-20T04:06:59.598Z,101036.00
2023-12-20T04:09:26.503Z,101044.25
2023-12-20T04:11:53.377Z,101042.50
2023-12-20T04:14:19.925Z,101049.31
2023-12-20T04:16:47.877Z,101045.75
2023-12-20T04:19:15.111Z,101052.56
2023-12-20T04:21:42.016Z,101055.94
2023-12-20T04:24:09.457Z,101042.94
2023-12-20T04:26:36.088Z,101045.50
2023-12-20T04:29:03.090Z,101041.03
2023-12-20T04:31:29.682Z,101036.56
2023-12-20T04:33:56.382Z,101037.41
2023-12-20T04:36:23.107Z,101031.56
2023-12-20T04:38:51.465Z,101028.03
2023-12-20T04:41:19.874Z,101030.75
2023-12-20T04:43:46.651Z,101040.91
2023-12-20T04:46:13.418Z,101031.28
2023-12-20T04:48:40.170Z,101026.94
2023-12-20T04:51:07.237Z,101020.72
2023-12-20T04:53:33.974Z,101032.78
2023-12-20T04:56:00.586Z,101035.34
2023-12-20T04:58:27.461Z,101033.59
2023-12-20T05:00:54.246Z,101032.00
2023-12-20T05:03:21.100Z,101025.06
2023-12-20T05:05:48.912Z,101028.44
2023-12-20T05:08:15.625Z,101024.25
2023-12-20T05:10:42.396Z,101022.47
2023-12-20T05:13:09.245Z,101012.06
2023-12-20T05:15:36.155Z,101025.63
2023-12-20T05:18:02.832Z,101021.97
2023-12-20T05:20:29.688Z,101019.41
2023-12-20T05:22:56.508Z,101015.84
2023-12-20T05:25:23.391Z,101025.06
2023-12-20T05:27:50.535Z,101020.75
2023-12-20T05:30:17.441Z,101019.66
2023-12-20T05:32:44.250Z,101026.44
2023-12-20T05:35:11.137Z,101018.59
2023-12-20T05:37:37.849Z,101013.44
2023-12-20T05:40:05.579Z,101012.63
2023-12-20T05:42:32.274Z,101021.16
2023-12-20T05:44:59.401Z,101013.28
2023-12-20T05:47:26.212Z,101011.53
2023-12-20T05:49:53.021Z,101012.22
2023-12-20T05:52:19.894Z,101011.28
2023-12-20T05:54:46.584Z,101018.72
2023-12-20T05:57:13.625Z,101012.63
2023-12-20T05:59:40.781Z,101004.75
2023-12-20T06:02:07.790Z,100999.63
2023-12-20T06:04:34.539Z,101015.06
2023-12-20T06:07:01.478Z,101010.75
2023-12-20T06:09:30.743Z,101009.81
2023-12-20T06:11:58.589Z,101009.09
2023-12-20T06:14:25.353Z,101014.25
2023-12-20T06:16:52.502Z,101012.63
2023-12-20T06:19:19.244Z,101015.06
2023-12-20T06:21:46.252Z,101019.16
2023-12-20T06:24:13.195Z,101015.63
2023-12-20T06:26:39.880Z,101005.03
2023-12-20T06:29:07.893Z,101016.16
2023-12-20T06:31:34.774Z,100999.78
2023-12-20T06:34:01.945Z,100997.88
2023-12-20T06:36:28.721Z,100996.91
2023-12-20T06:38:55.521Z,100984.97
2023-12-20T06:41:22.447Z,100993.38
2023-12-20T06:43:50.586Z,100983.91
2023-12-20T06:46:18.409Z,100986.59
2023-12-20T06:48:45.538Z,100991.63
2023-12-20T06:51:17.253Z,100995.81
2023-12-20T06:53:44.206Z,100996.78
2023-12-20T06:56:14.556Z,100991.47
2023-12-20T06:58:42.766Z,100998.28
2023-12-20T07:01:13.870Z,100983.59
2023-12-20T07:03:43.630Z,100990.41
2023-12-20T07:06:10.574Z,100981.75
2023-12-20T07:08:37.247Z,100991.06
2023-12-20T07:11:04.394Z,100986.75
2023-12-20T07:13:31.508Z,100979.00
2023-12-20T07:15:58.385Z,100983.09
2023-12-20T07:18:25.140Z,100986.47
2023-12-20T07:20:51.909Z,100992.31
2023-12-20T07:23:18.559Z,100978.75
2023-12-20T07:25:45.171Z,100974.25
2023-12-20T07:28:12.888Z,100969.22
2023-12-20T07:30:39.620Z,100985.25
2023-12-20T07:33:09.228Z,100972.22
2023-12-20T07:35:35.967Z,100974.66
2023-12-20T07:38:03.514Z,100965.31
2023-12-20T07:40:30.165Z,100971.94
2023-12-20T07:42:57.374Z,100976.84
2023-12-20T07:45:24.068Z,100982.00
2023-12-20T07:47:51.778Z,100974.13
2023-12-20T07:50:18.480Z,100973.16
2023-12-20T07:52:45.347Z,100964.47
2023-12-20T07:55:12.162Z,100954.97
2023-12-20T07:57:39.966Z,100962.56
2023-12-20T08:00:07.232Z,100959.06
2023-12-20T08:02:33.978Z,100964.88
2023-12-20T08:05:00.549Z,100967.31
2023-12-20T08:07:27.348Z,100962.97
2023-12-20T08:09:56.169Z,100962.00
2023-12-20T08:12:24.150Z,100968.66
2023-12-20T08:14:50.725Z,100974.63
2023-12-20T08:17:19.406Z,100976.94
2023-12-20T08:19:46.229Z,100976.69
2023-12-20T08:22:13.167Z,100979.25
2023-12-20T08:24:40.068Z,100978.13
2023-12-20T08:27:06.744Z,100971.09
2023-12-20T08:29:33.574Z,100977.06
2023-12-20T08:32:00.551Z,100969.31
2023-12-20T08:34:27.693Z,100965.66
2023-12-20T08:36:55.383Z,100968.91
2023-12-20T08:39:22.226Z,100972.19
2023-12-20T08:41:48.842Z,100972.03
2023-12-20T08:44:15.555Z,100981.38
2023-12-20T08:46:42.279Z,100974.34
2023-12-20T08:49:10.372Z,100969.19
2023-12-20T08:51:37.354Z,100967.28
2023-12-20T08:54:08.750Z,100965.47
2023-12-20T08:56:35.774Z,100961.97
2023-12-20T08:59:02.521Z,100969.69
2023-12-20T09:01:29.163Z,100957.75
2023-12-20T09:03:56.042Z,100960.47
2023-12-20T09:06:22.790Z,100962.22
2023-12-20T09:08:49.523Z,100957.91
2023-12-20T09:11:16.432Z,100952.72
2023-12-20T09:13:43.205Z,100960.47
2023-12-20T09:16:10.145Z,100969.03
2023-12-20T09:18:36.815Z,100964.03
2023-12-20T09:21:03.599Z,100964.16
2023-12-20T09:23:30.456Z,100962.22
2023-12-20T09:25:58.328Z,100964.03
2023-12-20T09:28:25.137Z,100975.94
2023-12-20T09:30:52.087Z,100966.44
2023-12-20T09:33:19.120Z,100972.44
2023-12-20T09:35:46.289Z,100967.94
2023-12-20T09:38:15.117Z,100963.59
2023-12-20T09:40:42.951Z,100987.50
2023-12-20T09:43:16.870Z,100980.28
2023-12-20T09:45:47.618Z,100978.38
2023-12-20T09:48:17.452Z,100974.69
2023-12-20T09:50:48.520Z,100976.44
2023-12-20T09:53:20.607Z,100970.19
2023-12-20T09:55:47.425Z,100979.44
2023-12-20T09:58:14.195Z,100978.50
2023-12-20T10:00:40.992Z,100964.63
2023-12-20T10:03:08.526Z,100967.19
2023-12-20T10:05:36.090Z,100973.19
2023-12-20T10:08:03.560Z,100967.88
2023-12-20T10:10:38.476Z,100963.25
2023-12-20T10:13:13.606Z,100967.97
2023-12-20T10:15:42.488Z,100975.56
2023-12-20T10:18:09.814Z,100980.47
2023-12-20T10:20:36.654Z,100990.63
2023-12-20T10:23:03.407Z,100984.53
2023-12-20T10:25:30.518Z,100968.06
2023-12-20T10:28:20.186Z,100971.34
2023-12-20T10:30:47.285Z,100967.53
2023-12-20T10:33:14.422Z,100972.94
2023-12-20T10:35:45.072Z,100961.34
2023-12-20T10:38:15.194Z,100959.81
2023-12-20T10:40:42.388Z,100956.09
2023-12-20T10:43:10.188Z,100949.13
2023-12-20T10:45:37.051Z,100949.03
2023-12-20T10:48:05.714Z,100954.72
2023-12-20T10:50:33.128Z,100944.25
2023-12-20T10:53:00.905Z,100936.34
2023-12-20T10:55:29.477Z,100938.50
2023-12-20T10:58:02.375Z,100928.81
2023-12-20T11:00:32.317Z,100918.34
2023-12-20T11:03:03.752Z,100914.50
2023-12-20T11:05:46.160Z,100905.66
2023-12-20T11:08:15.173Z,100913.28
2023-12-20T11:10:47.514Z,100912.59
2023-12-20T11:13:23.813Z,100913.56
2023-12-20T11:15:50.833Z,100916.41
2023-12-20T11:18:17.599Z,100901.59
2023-12-20T11:20:44.272Z,100908.25
2023-12-20T11:23:11.347Z,100904.19
2023-12-20T11:25:54.164Z,100909.34
2023-12-20T11:28:26.342Z,100928.50
2023-12-20T11:31:00.734Z,100919.16
2023-12-20T11:33:31.507Z,100909.91
2023-12-20T11:36:00.873Z,100908.28
2023-12-20T11:38:27.645Z,100892.94
2023-12-20T11:40:55.686Z,100890.19
2023-12-20T11:43:41.048Z,100893.75
2023-12-20T11:46:10.486Z,100903.56
2023-12-20T11:48:40.279Z,100918.72
2023-12-20T11:51:14.398Z,100915.16
2023-12-20T11:53:43.446Z,100921.56
2023-12-20T11:56:10.880Z,100928.81
2023-12-20T11:58:38.062Z,100932.00
2023-12-20T12:01:09.513Z,100920.63
2023-12-20T12:03:36.550Z,100926.06
2023-12-20T12:06:06.041Z,100917.09
2023-12-20T12:08:33.373Z,100925.41
2023-12-20T12:11:00.256Z,100937.38
2023-12-20T12:13:28.937Z,100939.16
2023-12-20T12:15:56.025Z,100933.00
2023-12-20T12:18:22.949Z,100937.38
2023-12-20T12:20:49.830Z,100945.13
2023-12-20T12:23:25.272Z,100925.00
2023-12-20T12:25:52.308Z,100922.97
2023-12-20T12:28:19.183Z,100920.63
2023-12-20T12:33:28.430Z,100905.16
2023-12-20T12:35:56.057Z,100897.25
2023-12-20T12:38:23.626Z,100896.16
2023-12-20T12:40:51.212Z,100894.38
2023-12-20T12:43:17.945Z,100900.78
2023-12-20T12:45:44.935Z,100893.84
2023-12-20T12:48:11.846Z,100886.25
2023-12-20T12:50:38.608Z,100888.69
2023-12-20T12:53:05.339Z,100902.41
2023-12-20T12:55:32.210Z,100891.25
2023-12-20T12:57:59.005Z,100878.78
2023-12-20T13:00:27.249Z,100887.34
2023-12-20T13:02:54.023Z,100885.06
2023-12-20T13:05:21.198Z,100884.94
2023-12-20T13:07:49.757Z,100873.94
2023-12-20T13:10:19.813Z,100867.13
2023-12-20T13:12:47.264Z,100861.72
2023-12-20T13:15:14.351Z,100860.88
2023-12-20T13:17:41.368Z,100878.13
2023-12-20T13:20:08.808Z,100876.78
2023-12-20T13:22:35.637Z,100866.47
2023-12-20T13:25:04.209Z,100845.41
2023-12-20T13:27:31.052Z,100839.28
2023-12-20T13:29:59.352Z,100832.06
2023-12-20T13:32:26.258Z,100837.38
2023-12-20T13:34:53.046Z,100837.06
2023-12-20T13:37:19.923Z,100831.78
2023-12-20T13:39:47.272Z,100820.50
2023-12-20T13:42:14.154Z,100825.38
2023-12-20T13:44:41.044Z,100820.22
2023-12-20T13:47:07.748Z,100820.88
2023-12-20T13:49:34.538Z,100823.31
2023-12-20T13:52:01.389Z,100822.63
2023-12-20T13:54:28.264Z,100822.50
2023-12-20T13:57:06.014Z,100811.06
2023-12-20T13:59:39.232Z,100804.28
2023-12-20T14:02:06.505Z,100799.28
2023-12-20T14:04:41.613Z,100806.22
2023-12-20T14:07:12.658Z,100796.84
2023-12-20T14:09:40.552Z,100795.88
2023-12-20T14:12:08.053Z,100805.25
2023-12-20T14:14:34.786Z,100809.59
2023-12-20T14:17:01.383Z,100798.31
2023-12-20T14:19:28.551Z,100783.66
2023-12-20T14:21:55.304Z,100797.06
2023-12-20T14:24:21.984Z,100797.88
2023-12-20T14:26:48.736Z,100785.78
2023-12-20T14:29:15.324Z,100795.44
2023-12-20T14:31:42.314Z,100784.16
2023-12-20T14:34:09.811Z,100787.69
2023-12-20T14:36:36.910Z,100788.53
2023-12-20T14:39:05.519Z,100795.13
2023-12-20T14:41:32.960Z,100806.16
2023-12-20T14:44:01.160Z,100801.00
2023-12-20T14:46:29.744Z,100798.25
2023-12-20T14:48:56.589Z,100801.34
2023-12-20T14:51:23.925Z,100791.25
2023-12-20T14:53:50.911Z,100794.19
2023-12-20T14:56:17.829Z,100794.88
2023-12-20T14:58:44.564Z,100794.56
2023-12-20T15:01:12.004Z,100790.88
2023-12-20T15:03:41.150Z,100790.72
2023-12-20T15:06:08.391Z,100793.16
2023-12-20T15:08:34.994Z,100790.59
2023-12-20T15:11:02.641Z,100788.81
2023-12-20T15:13:29.350Z,100798.19
2023-12-20T15:15:56.133Z,100793.00
2023-12-20T15:18:23.001Z,100797.06
2023-12-20T15:20:49.714Z,100808.34
2023-12-20T15:23:17.856Z,100816.09
2023-12-20T15:25:44.699Z,100820.16
2023-12-20T15:28:12.200Z,100815.16
2023-12-20T15:30:39.418Z,100814.19
2023-12-20T15:33:07.774Z,100817.44
2023-12-20T15:35:34.961Z,100810.66
2023-12-20T15:38:02.578Z,100802.91
2023-12-20T15:40:29.449Z,100798.56
2023-12-20T15:42:56.948Z,100794.34
2023-12-20T15:45:23.635Z,100795.81
2023-12-20T15:47:50.910Z,100775.97
2023-12-20T15:50:18.604Z,100783.88
2023-12-20T15:52:45.537Z,100775.31
2023-12-20T15:55:12.348Z,100771.91
2023-12-20T15:57:46.241Z,100775.31
2023-12-20T16:00:20.994Z,100774.34
2023-12-20T16:02:47.917Z,100768.38
2023-12-20T16:05:14.944Z,100769.19
2023-12-20T16:07:42.036Z,100766.63
2023-12-20T16:10:09.098Z,100767.56
2023-12-20T16:12:36.031Z,100761.44
2023-12-20T16:15:03.430Z,100760.63
2023-12-20T16:17:30.244Z,100760.63
2023-12-20T16:19:57.240Z,100762.22
2023-12-20T16:22:24.092Z,100751.91
2023-12-20T16:24:50.935Z,100744.16
2023-12-20T16:27:17.766Z,100750.94
2023-12-20T16:29:45.212Z,100744.16
2023-12-20T16:32:12.097Z,100739.00
2023-12-20T16:34:39.360Z,100734.66
2023-12-20T16:37:06.926Z,100730.28
2023-12-20T16:39:34.159Z,100732.88
2023-12-20T16:42:01.060Z,100743.38
2023-12-20T16:44:27.786Z,100739.97
2023-12-20T16:46:54.704Z,100740.78
2023-12-20T16:49:21.535Z,100738.19
2023-12-20T16:51:48.457Z,100732.34
2023-12-20T16:54:15.340Z,100724.47
2023-12-20T16:56:42.120Z,100719.31
2023-12-20T16:59:09.041Z,100707.34
2023-12-20T17:01:36.369Z,100697.16
2023-12-20T17:04:03.655Z,100693.78
2023-12-20T17:06:30.452Z,100684.09
2023-12-20T17:08:57.268Z,100691.03
2023-12-20T17:11:24.055Z,100691.84
2023-12-20T17:13:50.704Z,100680.03
2023-12-20T17:16:17.684Z,100675.69
2023-12-20T17:18:50.145Z,100679.91
2023-12-20T17:21:17.792Z,100667.78
2023-12-20T17:23:47.789Z,100665.06
2023-12-20T17:26:14.709Z,100658.13
2023-12-20T17:28:41.678Z,100652.00
2023-12-20T17:31:09.092Z,100641.66
2023-12-20T17:33:36.310Z,100632.97
2023-12-20T17:36:04.044Z,100631.34
2023-12-20T17:38:31.090Z,100634.72
2023-12-20T17:40:57.846Z,100631.16
2023-12-20T17:43:24.531Z,100621.81
2023-12-20T17:45:51.380Z,100615.03
2023-12-20T17:48:18.301Z,100611.50
2023-12-20T17:50:45.397Z,100610.38
2023-12-20T17:53:12.262Z,100605.03
2023-12-20T17:55:40.038Z,100600.69
2023-12-20T17:58:06.894Z,100597.13
2023-12-20T18:00:37.513Z,100605.03
2023-12-20T18:03:05.096Z,100596.19
2023-12-20T18:05:31.848Z,100590.19
2023-12-20T18:07:58.444Z,100578.91
2023-12-20T18:10:25.354Z,100589.25
2023-12-20T18:12:52.181Z,100579.75
2023-12-20T18:15:19.504Z,100567.78
2023-12-20T18:17:46.472Z,100571.16
2023-12-20T18:20:15.262Z,100558.25
2023-12-20T18:22:43.391Z,100563.44
2023-12-20T18:25:10.573Z,100557.16
2023-12-20T18:27:37.268Z,100552.75
2023-12-20T18:30:15.050Z,100543.25
2023-12-20T18:32:43.641Z,100546.81
2023-12-20T18:35:10.662Z,100545.81
2023-12-20T18:37:40.257Z,100538.06
2023-12-20T18:40:08.604Z,100542.44
2023-12-20T18:42:35.371Z,100529.38
2023-12-20T18:45:05.403Z,100531.97
2023-12-20T18:47:32.394Z,100523.22
2023-12-20T18:49:59.505Z,100518.06
2023-12-20T18:52:26.201Z,100517.94
2023-12-20T18:54:52.893Z,100520.34
2023-12-20T18:57:19.541Z,100516.00
2023-12-20T18:59:46.177Z,100511.63
2023-12-20T19:02:13.930Z,100503.72
2023-12-20T19:04:40.881Z,100501.13
2023-12-20T19:07:07.764Z,100494.03
2023-12-20T19:09:34.639Z,100493.09
2023-12-20T19:12:01.452Z,100489.69
2023-12-20T19:14:28.088Z,100480.94
2023-12-20T19:16:55.200Z,100488.41
2023-12-20T19:19:22.366Z,100488.22
2023-12-20T19:21:49.237Z,100478.56
2023-12-20T19:24:15.976Z,100469.84
2023-12-20T19:26:42.773Z,100474.06
2023-12-20T19:29:09.475Z,100470.47
2023-12-20T19:31:36.124Z,100470.34
2023-12-20T19:34:03.037Z,100464.38
2023-12-20T19:36:29.806Z,100455.53
2023-12-20T19:38:56.671Z,100456.44
2023-12-20T19:41:23.319Z,100452.94
2023-12-20T19:43:50.045Z,100449.22
2023-12-20T19:46:16.929Z,100437.09
2023-12-20T19:48:44.522Z,100435.31
2023-12-20T19:51:12.256Z,100421.28
2023-12-20T19:53:40.884Z,100424.69
2023-12-20T19:56:07.921Z,100408.19
2023-12-20T19:58:34.790Z,100403.81
2023-12-20T20:01:01.790Z,100407.06
2023-12-20T20:03:28.537Z,100423.38
2023-12-20T20:05:55.399Z,100428.22
2023-12-20T20:08:22.037Z,100419.66
2023-12-20T20:10:48.952Z,100416.91
2023-12-20T20:13:16.382Z,100408.03
2023-12-20T20:15:43.221Z,100408.84
2023-12-20T20:18:11.072Z,100403.66
2023-12-20T20:20:37.975Z,100399.31
2023-12-20T20:23:04.704Z,100406.09
2023-12-20T20:25:31.578Z,100402.53
2023-12-20T20:27:58.599Z,100410.28
2023-12-20T20:30:25.405Z,100400.78
2023-12-20T20:32:53.001Z,100397.06
2023-12-20T20:35:22.033Z,100399.66
2023-12-20T20:37:50.299Z,100390.91
2023-12-20T20:40:19.683Z,100396.88
2023-12-20T20:42:46.953Z,100389.78
2023-12-20T20:45:15.041Z,100388.97
2023-12-20T20:47:43.157Z,100388.00
2023-12-20T20:50:11.332Z,100384.47
2023-12-20T20:52:38.573Z,100390.41
2023-12-20T20:55:05.893Z,100377.34
2023-12-20T20:57:32.645Z,100366.00
2023-12-20T20:59:59.355Z,100361.66
2023-12-20T21:02:26.261Z,100365.06
2023-12-20T21:04:53.146Z,100358.91
2023-12-20T21:07:20.849Z,100363.28
2023-12-20T21:09:49.422Z,100358.13
2023-12-20T21:12:16.193Z,100366.84
2023-12-20T21:14:42.993Z,100366.66
2023-12-20T21:17:09.786Z,100351.97
2023-12-20T21:19:36.698Z,100353.72
2023-12-20T21:22:03.987Z,100358.75
2023-12-20T21:24:30.771Z,100339.66
2023-12-20T21:26:57.793Z,100325.78
2023-12-20T21:29:25.773Z,100331.78
2023-12-20T21:31:53.003Z,100326.59
2023-12-20T21:34:19.867Z,100318.03
2023-12-20T21:36:46.627Z,100309.28
2023-12-20T21:39:13.799Z,100312.69
2023-12-20T21:41:40.450Z,100302.16
2023-12-20T21:44:08.563Z,100289.25
2023-12-20T21:46:35.254Z,100286.50
2023-12-20T21:49:02.269Z,100290.88
2023-12-20T21:51:29.098Z,100302.84
2023-12-20T21:54:15.738Z,100297.66
2023-12-20T21:56:43.724Z,100301.84
2023-12-20T21:59:10.693Z,100315.59
2023-12-20T22:01:42.832Z,100314.63
2023-12-20T22:04:10.276Z,100323.81
2023-12-20T22:06:37.052Z,100324.63
2023-12-20T22:09:05.961Z,100324.47
2023-12-20T22:11:33.614Z,100330.28
2023-12-20T22:14:00.271Z,100324.94
2023-12-20T22:16:28.110Z,100337.69
2023-12-20T22:18:57.668Z,100327.97
2023-12-20T22:21:24.615Z,100331.38
2023-12-20T22:23:51.301Z,100325.25
2023-12-20T22:26:18.008Z,100325.88
2023-12-20T22:28:44.637Z,100317.94
2023-12-20T22:31:11.439Z,100314.41
2023-12-20T22:33:38.286Z,100318.59
2023-12-20T22:36:05.327Z,100309.88
2023-12-20T22:38:33.661Z,100295.16
2023-12-20T22:41:01.121Z,100306.13
2023-12-20T22:43:27.759Z,100294.81
2023-12-20T22:45:55.363Z,100304.19
2023-12-20T22:48:22.262Z,100292.06
2023-12-20T22:50:49.169Z,100285.91
2023-12-20T22:53:15.920Z,100287.53
2023-12-20T22:55:43.150Z,100280.41
2023-12-20T22:58:10.123Z,100276.19
2023-12-20T23:00:36.953Z,100277.81
2023-12-20T23:03:03.737Z,100277.00
2023-12-20T23:05:30.541Z,100274.28
2023-12-20T23:07:57.808Z,100262.13
2023-12-20T23:10:31.244Z,100256.94
2023-12-20T23:12:58.277Z,100257.59
2023-12-20T23:15:25.366Z,100257.59
2023-12-20T23:17:54.273Z,100238.50
2023-12-20T23:20:21.134Z,100244.50
2023-12-20T23:22:47.906Z,100234.94
2023-12-20T23:25:16.234Z,100230.56
2023-12-20T23:27:44.494Z,100221.03
2023-12-20T23:30:11.699Z,100225.25
2023-12-20T23:32:38.655Z,100220.88
2023-12-20T23:35:13.424Z,100212.94
2023-12-20T23:37:43.481Z,100217.13
2023-12-20T23:40:11.103Z,100216.97
2023-12-20T23:42:37.893Z,100206.63
2023-12-20T23:45:05.619Z,100201.44
2023-12-20T23:47:32.255Z,100202.25
2023-12-20T23:49:59.288Z,100211.44
2023-12-20T23:52:26.515Z,100201.88
2023-12-20T23:54:53.279Z,100198.50
2023-12-20T23:57:19.948Z,100199.16
2023-12-20T23:59:46.761Z,100198.34
